createdAt,value
2019-05-22T00:01:58.378Z,21.00
2019-05-22T00:04:30.593Z,20.43
2019-05-22T00:07:02.350Z,23.33
2019-05-22T00:09:38.082Z,22.50
2019-05-22T00:12:11.232Z,20.50
2019-05-22T00:14:41.328Z,20.63
2019-05-22T00:17:15.516Z,21.00
2019-05-22T00:19:46.048Z,22.70
2019-05-22T00:22:24.408Z,22.07
2019-05-22T00:24:54.474Z,21.67
2019-05-22T00:27:26.432Z,22.67
2019-05-22T00:29:57.072Z,22.40
2019-05-22T00:32:27.321Z,22.43
2019-05-22T00:34:56.681Z,21.27
2019-05-22T00:37:26.495Z,20.63
2019-05-22T00:39:57.426Z,22.53
2019-05-22T00:42:27.801Z,21.77
2019-05-22T00:44:58.357Z,21.93
2019-05-22T00:47:30.620Z,22.00
2019-05-22T00:50:03.580Z,22.10
2019-05-22T00:52:45.196Z,19.57
2019-05-22T00:55:34.472Z,21.20
2019-05-22T00:58:09.384Z,22.00
2019-05-22T01:00:52.276Z,22.13
2019-05-22T01:03:22.696Z,23.50
2019-05-22T01:05:52.460Z,23.07
2019-05-22T01:08:24.052Z,25.27
2019-05-22T01:10:55.494Z,24.17
2019-05-22T01:13:27.609Z,23.20
2019-05-22T01:15:58.827Z,23.93
2019-05-22T01:18:28.396Z,24.43
2019-05-22T01:21:00.224Z,26.00
2019-05-22T01:23:32.992Z,24.50
2019-05-22T01:26:03.069Z,25.40
2019-05-22T01:28:35.728Z,25.37
2019-05-22T01:31:24.161Z,26.47
2019-05-22T01:33:59.885Z,26.47
2019-05-22T01:36:38.132Z,25.40
2019-05-22T01:39:45.396Z,25.90
2019-05-22T01:42:21.502Z,24.20
2019-05-22T01:45:03.375Z,25.57
2019-05-22T01:47:42.540Z,26.00
2019-05-22T01:50:18.153Z,26.00
2019-05-22T01:52:49.273Z,28.10
2019-05-22T01:55:20.852Z,25.60
2019-05-22T01:57:53.133Z,26.40
2019-05-22T02:00:22.492Z,23.90
2019-05-22T02:02:52.844Z,25.03
2019-05-22T02:05:24.926Z,22.50
2019-05-22T02:07:55.380Z,24.00
2019-05-22T02:10:30.198Z,23.37
2019-05-22T02:13:02.561Z,23.87
2019-05-22T02:15:34.880Z,24.47
2019-05-22T02:18:07.469Z,23.03
2019-05-22T02:20:38.583Z,21.63
2019-05-22T02:23:08.738Z,22.63
2019-05-22T02:25:38.820Z,21.27
2019-05-22T02:28:09.085Z,25.20
2019-05-22T02:30:42.338Z,21.47
2019-05-22T02:33:14.216Z,22.17
2019-05-22T02:36:02.581Z,22.97
2019-05-22T02:38:31.565Z,22.83
2019-05-22T02:41:01.242Z,23.00
2019-05-22T02:43:31.002Z,25.10
2019-05-22T02:46:00.334Z,24.03
2019-05-22T02:48:30.832Z,22.43
2019-05-22T02:50:59.697Z,22.73
2019-05-22T02:53:29.764Z,23.60
2019-05-22T02:55:58.570Z,23.20
2019-05-22T02:58:29.161Z,23.27
2019-05-22T03:01:03.132Z,22.57
2019-05-22T03:03:33.680Z,22.77
2019-05-22T03:06:03.922Z,22.90
2019-05-22T03:09:04.469Z,20.60
2019-05-22T03:11:39.737Z,21.20
2019-05-22T03:14:11.081Z,22.20
2019-05-22T03:16:51.349Z,21.63
2019-05-22T03:19:31.262Z,20.83
2019-05-22T03:22:00.311Z,21.17
2019-05-22T03:24:30.378Z,21.40
2019-05-22T03:27:00.033Z,20.40
2019-05-22T03:29:43.168Z,21.37
2019-05-22T03:32:12.354Z,20.30
2019-05-22T03:34:42.067Z,21.63
2019-05-22T03:37:11.145Z,38.60
2019-05-22T03:39:40.946Z,37.30
2019-05-22T03:42:13.077Z,28.60
2019-05-22T03:44:42.522Z,31.63
2019-05-22T03:47:12.814Z,31.53
2019-05-22T03:49:45.023Z,31.70
2019-05-22T03:52:14.966Z,34.40
2019-05-22T03:54:45.041Z,35.53
2019-05-22T03:57:14.342Z,35.97
2019-05-22T03:59:43.418Z,30.60
2019-05-22T04:02:13.276Z,33.67
2019-05-22T04:04:44.132Z,31.63
2019-05-22T04:07:16.439Z,27.13
2019-05-22T04:09:46.175Z,28.33
2019-05-22T04:12:15.308Z,27.97
2019-05-22T04:14:45.895Z,29.70
2019-05-22T04:17:16.735Z,25.73
2019-05-22T04:19:50.396Z,25.40
2019-05-22T04:22:18.226Z,24.63
2019-05-22T04:24:48.905Z,26.87
2019-05-22T04:27:18.884Z,22.70
2019-05-22T04:29:49.800Z,25.40
2019-05-22T04:32:29.421Z,23.20
2019-05-22T04:34:58.688Z,23.23
2019-05-22T04:37:29.328Z,21.60
2019-05-22T04:40:49.387Z,22.03
2019-05-22T04:43:21.193Z,21.47
2019-05-22T04:45:51.191Z,20.27
2019-05-22T04:48:20.384Z,20.00
2019-05-22T04:50:51.710Z,21.80
2019-05-22T04:53:21.078Z,21.70
2019-05-22T04:55:49.938Z,18.90
2019-05-22T04:58:24.194Z,19.93
2019-05-22T05:00:55.029Z,19.53
2019-05-22T05:03:25.269Z,22.10
2019-05-22T05:05:55.891Z,20.30
2019-05-22T05:08:25.224Z,21.33
2019-05-22T05:10:58.043Z,22.13
2019-05-22T05:13:27.095Z,20.40
2019-05-22T05:15:56.285Z,21.37
2019-05-22T05:18:26.035Z,20.57
2019-05-22T05:20:55.742Z,21.43
2019-05-22T05:23:25.154Z,22.33
2019-05-22T05:25:54.105Z,21.90
2019-05-22T05:28:24.122Z,21.73
2019-05-22T05:30:53.272Z,20.70
2019-05-22T05:33:23.641Z,21.07
2019-05-22T05:35:53.485Z,21.70
2019-05-22T05:38:35.983Z,22.07
2019-05-22T05:41:05.768Z,20.50
2019-05-22T05:43:35.554Z,20.40
2019-05-22T05:46:05.362Z,20.60
2019-05-22T05:48:35.989Z,17.20
2019-05-22T05:51:42.707Z,21.17
2019-05-22T05:54:23.168Z,21.50
2019-05-22T05:56:53.967Z,18.93
2019-05-22T05:59:24.122Z,20.40
2019-05-22T06:01:55.034Z,20.87
2019-05-22T06:04:49.361Z,18.57
2019-05-22T06:07:24.940Z,19.70
2019-05-22T06:10:21.958Z,19.43
2019-05-22T06:12:51.228Z,20.60
2019-05-22T06:15:22.102Z,18.77
2019-05-22T06:18:35.681Z,19.43
2019-05-22T06:21:07.234Z,20.10
2019-05-22T06:24:22.085Z,18.93
2019-05-22T06:27:08.781Z,18.60
2019-05-22T06:29:51.217Z,20.30
2019-05-22T06:33:01.341Z,19.53
2019-05-22T06:35:37.699Z,20.43
2019-05-22T06:38:52.249Z,18.30
2019-05-22T06:41:35.096Z,21.10
2019-05-22T06:44:30.795Z,19.97
2019-05-22T06:47:01.157Z,19.70
2019-05-22T06:49:38.710Z,19.63
2019-05-22T06:52:09.253Z,19.93
2019-05-22T06:54:38.753Z,19.67
2019-05-22T06:57:15.204Z,17.70
2019-05-22T06:59:46.276Z,18.13
2019-05-22T07:02:17.206Z,18.77
2019-05-22T07:04:47.108Z,18.47
2019-05-22T07:07:17.353Z,18.70
2019-05-22T07:09:46.952Z,16.70
2019-05-22T07:12:24.281Z,17.70
2019-05-22T07:15:59.451Z,17.67
2019-05-22T07:18:29.452Z,17.57
2019-05-22T07:20:58.568Z,19.90
2019-05-22T07:23:29.372Z,18.53
2019-05-22T07:26:01.713Z,16.43
2019-05-22T07:28:32.279Z,15.50
2019-05-22T07:31:02.843Z,16.33
2019-05-22T07:33:32.770Z,13.30
2019-05-22T07:36:09.853Z,14.90
2019-05-22T07:38:34.696Z,17.43
2019-05-22T07:41:05.823Z,14.00
2019-05-22T07:43:35.579Z,15.20
2019-05-22T07:46:04.555Z,13.33
2019-05-22T07:48:33.835Z,11.80
2019-05-22T07:51:05.806Z,12.60
2019-05-22T07:53:35.043Z,13.77
2019-05-22T07:56:09.458Z,12.63
2019-05-22T07:58:39.020Z,15.73
2019-05-22T08:01:09.698Z,12.40
2019-05-22T08:03:40.660Z,14.00
2019-05-22T08:06:10.309Z,10.33
2019-05-22T08:08:42.012Z,13.80
2019-05-22T08:11:12.147Z,15.10
2019-05-22T08:13:43.402Z,14.90
2019-05-22T08:16:12.596Z,14.57
2019-05-22T08:18:42.750Z,14.70
2019-05-22T08:21:12.428Z,12.17
2019-05-22T08:23:42.075Z,13.00
2019-05-22T08:26:12.851Z,13.27
2019-05-22T08:28:42.233Z,16.17
2019-05-22T08:31:13.364Z,14.43
2019-05-22T08:33:42.679Z,16.00
2019-05-22T08:36:12.212Z,13.60
2019-05-22T08:38:44.365Z,13.73
2019-05-22T08:41:16.016Z,14.60
2019-05-22T08:44:15.119Z,15.33
2019-05-22T08:46:17.987Z,11.93
2019-05-22T08:48:48.941Z,14.27
2019-05-22T08:51:18.683Z,11.93
2019-05-22T08:53:48.827Z,15.47
2019-05-22T08:56:18.792Z,15.10
2019-05-22T08:58:48.653Z,13.87
2019-05-22T09:01:17.757Z,12.93
2019-05-22T09:03:47.440Z,15.80
2019-05-22T09:06:16.846Z,14.27
2019-05-22T09:08:45.994Z,11.90
2019-05-22T09:11:14.921Z,12.70
2019-05-22T09:13:44.476Z,10.63
2019-05-22T09:16:14.477Z,12.00
2019-05-22T09:18:43.788Z,11.20
2019-05-22T09:21:13.854Z,11.93
2019-05-22T09:23:44.198Z,13.30
2019-05-22T09:26:13.377Z,12.00
2019-05-22T09:28:42.776Z,10.93
2019-05-22T09:31:11.805Z,11.63
2019-05-22T09:33:41.545Z,12.47
2019-05-22T09:36:11.334Z,13.90
2019-05-22T09:38:40.246Z,12.63
2019-05-22T09:41:09.683Z,12.83
2019-05-22T09:43:38.715Z,12.07
2019-05-22T09:46:08.300Z,13.50
2019-05-22T09:48:37.877Z,12.00
2019-05-22T09:51:07.335Z,13.03
2019-05-22T09:53:38.165Z,12.60
2019-05-22T09:56:07.232Z,12.37
2019-05-22T09:58:36.405Z,12.73
2019-05-22T10:01:06.824Z,12.37
2019-05-22T10:03:37.030Z,12.83
2019-05-22T10:06:07.368Z,14.10
2019-05-22T10:08:36.820Z,13.80
2019-05-22T10:11:06.139Z,12.10
2019-05-22T10:13:35.642Z,11.10
2019-05-22T10:16:06.229Z,10.47
2019-05-22T10:18:35.425Z,11.23
2019-05-22T10:21:05.518Z,11.00
2019-05-22T10:23:35.188Z,11.30
2019-05-22T10:26:05.322Z,10.90
2019-05-22T10:28:35.197Z,12.43
2019-05-22T10:31:05.274Z,11.60
2019-05-22T10:33:34.321Z,13.20
2019-05-22T10:36:04.098Z,12.57
2019-05-22T10:38:32.956Z,11.33
2019-05-22T10:41:02.077Z,11.10
2019-05-22T10:43:31.056Z,12.33
2019-05-22T10:45:59.979Z,11.07
2019-05-22T10:48:29.412Z,12.20
2019-05-22T10:50:58.429Z,10.37
2019-05-22T10:53:33.658Z,12.40
2019-05-22T10:55:58.940Z,11.97
2019-05-22T10:58:27.930Z,12.50
2019-05-22T11:00:57.178Z,12.70
2019-05-22T11:03:27.281Z,11.80
2019-05-22T11:06:06.728Z,11.17
2019-05-22T11:08:31.733Z,12.73
2019-05-22T11:10:58.775Z,12.37
2019-05-22T11:13:28.352Z,10.93
2019-05-22T11:15:58.711Z,11.13
2019-05-22T11:18:28.758Z,11.33
2019-05-22T11:20:58.249Z,11.30
2019-05-22T11:23:28.493Z,12.37
2019-05-22T11:25:57.474Z,12.67
2019-05-22T11:28:27.976Z,11.90
2019-05-22T11:30:57.543Z,11.77
2019-05-22T11:33:26.753Z,12.27
2019-05-22T11:35:55.949Z,12.90
2019-05-22T11:38:25.246Z,12.43
2019-05-22T11:40:54.145Z,11.70
2019-05-22T11:43:23.307Z,12.30
2019-05-22T11:45:52.753Z,13.80
2019-05-22T11:48:22.198Z,13.60
2019-05-22T11:50:51.324Z,13.97
2019-05-22T11:53:20.233Z,13.30
2019-05-22T11:55:49.234Z,12.80
2019-05-22T11:58:18.546Z,14.80
2019-05-22T12:00:48.269Z,13.73
2019-05-22T12:03:18.536Z,14.87
2019-05-22T12:05:47.952Z,13.73
2019-05-22T12:08:17.404Z,13.57
2019-05-22T12:10:46.985Z,14.70
2019-05-22T12:13:16.626Z,13.87
2019-05-22T12:15:46.057Z,14.60
2019-05-22T12:18:15.918Z,15.90
2019-05-22T12:20:44.944Z,15.10
2019-05-22T12:23:13.902Z,14.30
2019-05-22T12:25:42.828Z,14.50
2019-05-22T12:28:11.812Z,15.17
2019-05-22T12:30:41.680Z,14.17
2019-05-22T12:33:13.541Z,12.93
2019-05-22T12:35:43.944Z,12.20
2019-05-22T12:38:13.873Z,13.53
2019-05-22T12:40:44.008Z,12.03
2019-05-22T12:43:12.949Z,12.03
2019-05-22T12:45:41.930Z,12.43
2019-05-22T12:48:11.982Z,12.30
2019-05-22T12:50:41.466Z,14.47
2019-05-22T12:53:13.703Z,13.30
2019-05-22T12:55:43.896Z,12.63
2019-05-22T12:58:13.344Z,12.93
2019-05-22T13:00:43.067Z,12.90
2019-05-22T13:03:13.439Z,13.37
2019-05-22T13:05:43.259Z,12.90
2019-05-22T13:08:13.601Z,13.90
2019-05-22T13:10:42.998Z,14.13
2019-05-22T13:13:12.071Z,13.53
2019-05-22T13:15:42.513Z,13.33
2019-05-22T13:18:15.636Z,12.07
2019-05-22T13:20:47.779Z,12.30
2019-05-22T13:23:17.525Z,14.63
2019-05-22T13:25:46.835Z,12.80
2019-05-22T13:28:18.871Z,11.57
2019-05-22T13:30:52.643Z,12.80
2019-05-22T13:33:25.843Z,12.90
2019-05-22T13:35:56.017Z,14.30
2019-05-22T13:38:25.695Z,13.00
2019-05-22T13:40:55.536Z,12.50
2019-05-22T13:43:25.233Z,12.27
2019-05-22T13:45:54.925Z,13.90
2019-05-22T13:48:24.530Z,13.83
2019-05-22T13:50:54.553Z,13.60
2019-05-22T13:53:23.861Z,12.67
2019-05-22T13:55:53.432Z,12.67
2019-05-22T13:58:23.409Z,13.67
2019-05-22T14:00:52.403Z,12.37
2019-05-22T14:03:22.022Z,13.17
2019-05-22T14:05:52.512Z,10.90
2019-05-22T14:08:22.238Z,12.23
2019-05-22T14:10:53.085Z,12.67
2019-05-22T14:13:24.021Z,12.07
2019-05-22T14:15:56.922Z,10.87
2019-05-22T14:18:24.333Z,11.20
2019-05-22T14:20:53.509Z,12.07
2019-05-22T14:23:22.654Z,11.83
2019-05-22T14:25:52.184Z,12.40
2019-05-22T14:28:22.397Z,12.83
2019-05-22T14:30:52.305Z,10.67
2019-05-22T14:33:21.262Z,11.57
2019-05-22T14:35:52.437Z,11.30
2019-05-22T14:38:22.297Z,11.67
2019-05-22T14:40:51.250Z,11.20
2019-05-22T14:43:20.598Z,11.80
2019-05-22T14:45:49.545Z,10.60
2019-05-22T14:48:19.521Z,9.93
2019-05-22T14:50:48.811Z,11.10
2019-05-22T14:53:17.793Z,11.20
2019-05-22T14:55:47.989Z,8.80
2019-05-22T14:58:18.862Z,8.17
2019-05-22T15:00:48.545Z,7.90
2019-05-22T15:03:18.190Z,8.97
2019-05-22T15:05:47.873Z,7.70
2019-05-22T15:08:16.956Z,7.80
2019-05-22T15:10:46.908Z,6.30
2019-05-22T15:13:16.382Z,5.93
2019-05-22T15:15:45.721Z,6.40
2019-05-22T15:18:14.762Z,7.17
2019-05-22T15:21:01.891Z,7.97
2019-05-22T15:23:32.453Z,7.47
2019-05-22T15:26:02.788Z,5.93
2019-05-22T15:28:32.169Z,6.97
2019-05-22T15:31:03.217Z,6.10
2019-05-22T15:33:34.002Z,6.37
2019-05-22T15:36:06.808Z,7.37
2019-05-22T15:38:36.636Z,8.03
2019-05-22T15:41:06.472Z,6.90
2019-05-22T15:43:35.664Z,6.90
2019-05-22T15:46:08.422Z,7.20
2019-05-22T15:48:39.874Z,7.60
2019-05-22T15:51:10.268Z,4.73
2019-05-22T15:53:41.212Z,6.33
2019-05-22T15:56:11.892Z,7.07
2019-05-22T15:58:46.852Z,7.37
2019-05-22T16:01:18.780Z,8.10
2019-05-22T16:03:49.348Z,7.60
2019-05-22T16:06:19.048Z,7.97
2019-05-22T16:08:49.640Z,6.93
2019-05-22T16:11:20.151Z,7.10
2019-05-22T16:13:49.740Z,5.97
2019-05-22T16:16:22.178Z,6.40
2019-05-22T16:18:53.695Z,6.83
2019-05-22T16:21:24.436Z,7.83
2019-05-22T16:23:55.006Z,7.70
2019-05-22T16:26:24.937Z,7.60
2019-05-22T16:28:55.037Z,6.90
2019-05-22T16:31:24.882Z,6.77
2019-05-22T16:33:54.493Z,6.93
2019-05-22T16:36:24.117Z,6.80
2019-05-22T16:38:54.776Z,6.20
2019-05-22T16:41:25.657Z,6.50
2019-05-22T16:43:55.133Z,6.40
2019-05-22T16:46:24.821Z,6.37
2019-05-22T16:48:54.181Z,6.93
2019-05-22T16:51:24.880Z,6.47
2019-05-22T16:53:56.470Z,6.70
2019-05-22T16:56:27.857Z,6.60
2019-05-22T16:58:58.995Z,5.80
2019-05-22T17:01:28.400Z,6.07
2019-05-22T17:04:01.152Z,6.57
2019-05-22T17:06:31.287Z,6.07
2019-05-22T17:09:03.231Z,6.60
2019-05-22T17:11:33.188Z,7.03
2019-05-22T17:14:04.594Z,7.17
2019-05-22T17:16:36.980Z,7.00
2019-05-22T17:19:23.802Z,7.10
2019-05-22T17:21:38.996Z,7.03
2019-05-22T17:24:11.552Z,7.53
2019-05-22T17:26:41.166Z,8.63
2019-05-22T17:29:12.163Z,9.10
2019-05-22T17:31:43.509Z,9.97
2019-05-22T17:34:32.114Z,10.33
2019-05-22T17:37:04.367Z,10.53
2019-05-22T17:39:34.487Z,10.57
2019-05-22T17:42:05.034Z,10.30
2019-05-22T17:44:35.227Z,10.90
2019-05-22T17:47:06.612Z,11.40
2019-05-22T17:49:36.037Z,10.23
2019-05-22T17:52:05.805Z,9.97
2019-05-22T17:54:35.175Z,9.50
2019-05-22T17:57:05.157Z,10.80
2019-05-22T17:59:34.657Z,10.73
2019-05-22T18:02:05.496Z,10.53
2019-05-22T18:04:34.576Z,10.37
2019-05-22T18:07:04.733Z,10.87
2019-05-22T18:09:34.357Z,11.40
2019-05-22T18:12:04.996Z,11.10
2019-05-22T18:14:34.804Z,11.97
2019-05-22T18:17:04.097Z,11.80
2019-05-22T18:19:33.119Z,12.67
2019-05-22T18:22:02.088Z,12.40
2019-05-22T18:24:31.391Z,13.20
2019-05-22T18:27:00.334Z,12.77
2019-05-22T18:29:29.275Z,13.20
2019-05-22T18:31:58.334Z,12.70
2019-05-22T18:34:27.292Z,14.40
2019-05-22T18:36:56.505Z,13.30
2019-05-22T18:39:26.520Z,12.77
2019-05-22T18:41:55.464Z,12.23
2019-05-22T18:44:24.468Z,12.20
2019-05-22T18:46:53.791Z,13.53
2019-05-22T18:49:22.768Z,14.80
2019-05-22T18:51:51.569Z,13.50
2019-05-22T18:54:20.533Z,15.07
2019-05-22T18:56:50.147Z,14.95
2019-05-22T18:59:19.002Z,14.80
2019-05-22T19:01:48.116Z,14.10
2019-05-22T19:04:17.219Z,13.80
2019-05-22T19:06:46.574Z,14.13
2019-05-22T19:09:16.376Z,14.40
2019-05-22T19:11:45.378Z,13.70
2019-05-22T19:14:14.889Z,14.77
2019-05-22T19:16:44.486Z,13.80
2019-05-22T19:21:41.645Z,14.33
2019-05-22T19:24:11.268Z,14.40
2019-05-22T19:41:30.179Z,14.00
2019-05-22T19:48:55.840Z,13.50
2019-05-22T19:51:25.297Z,14.50
2019-05-22T19:53:54.404Z,16.20
2019-05-22T19:56:24.052Z,16.00
2019-05-22T19:58:53.932Z,16.37
2019-05-22T20:01:23.137Z,16.75
2019-05-22T20:03:52.217Z,17.03
2019-05-22T20:06:22.037Z,18.00
2019-05-22T20:11:19.548Z,15.80
2019-05-22T20:13:49.163Z,16.95
2019-05-22T20:16:18.814Z,17.80
2019-05-22T20:18:48.201Z,17.67
2019-05-22T20:21:17.739Z,17.30
2019-05-22T20:23:46.720Z,17.93
2019-05-22T20:26:16.881Z,17.77
2019-05-22T20:28:46.688Z,18.20
2019-05-22T20:31:16.810Z,17.90
2019-05-22T20:33:46.182Z,17.10
2019-05-22T20:36:16.237Z,17.00
2019-05-22T20:38:46.165Z,17.03
2019-05-22T20:41:16.016Z,16.73
2019-05-22T20:43:46.724Z,17.70
2019-05-22T20:46:18.385Z,17.50
2019-05-22T20:48:49.553Z,16.57
2019-05-22T20:51:20.032Z,17.10
2019-05-22T20:53:53.950Z,16.47
2019-05-22T20:56:23.714Z,16.20
2019-05-22T20:58:53.455Z,16.03
2019-05-22T21:01:22.777Z,15.10
2019-05-22T21:03:52.397Z,15.97
2019-05-22T21:06:23.220Z,14.30
2019-05-22T21:08:53.393Z,16.80
2019-05-22T21:11:25.308Z,14.60
2019-05-22T21:13:54.501Z,15.73
2019-05-22T21:16:24.560Z,16.90
2019-05-22T21:18:55.401Z,15.50
2019-05-22T21:21:25.283Z,15.80
2019-05-22T21:24:09.612Z,16.55
2019-05-22T21:26:26.416Z,16.30
2019-05-22T21:28:55.328Z,15.23
2019-05-22T21:31:24.776Z,14.87
2019-05-22T21:33:55.208Z,16.37
2019-05-22T21:36:25.584Z,15.40
2019-05-22T21:38:55.060Z,15.10
2019-05-22T21:41:24.120Z,15.70
2019-05-22T21:43:53.927Z,15.55
2019-05-22T21:46:23.509Z,15.83
2019-05-22T21:48:55.780Z,16.60
2019-05-22T21:51:24.819Z,16.27
2019-05-22T21:53:54.748Z,15.47
2019-05-22T21:56:24.900Z,16.10
2019-05-22T21:58:54.316Z,17.07
2019-05-22T22:01:29.888Z,16.17
2019-05-22T22:04:05.689Z,15.63
2019-05-22T22:06:35.089Z,15.20
2019-05-22T22:09:06.113Z,15.70
2019-05-22T22:11:35.868Z,15.60
2019-05-22T22:19:02.880Z,14.30
2019-05-22T22:36:29.921Z,12.50
2019-05-22T22:38:58.888Z,13.40
2019-05-22T22:41:27.904Z,12.93
2019-05-22T22:43:58.424Z,14.07
2019-05-22T22:46:55.655Z,11.30
2019-05-22T22:49:27.770Z,12.50
2019-05-22T22:51:57.685Z,12.90
2019-05-22T22:54:27.886Z,13.05
2019-05-22T22:56:57.585Z,12.90
2019-05-22T22:59:27.700Z,11.90
2019-05-22T23:01:59.449Z,11.75
2019-05-22T23:04:29.729Z,12.75
2019-05-22T23:11:59.760Z,13.30
2019-05-22T23:14:31.160Z,14.10
2019-05-22T23:27:03.541Z,13.70
2019-05-22T23:34:32.065Z,13.80
2019-05-22T23:37:02.563Z,13.90
2019-05-22T23:44:35.706Z,16.50
2019-05-22T23:57:01.214Z,17.10
